Aviation Digital Data Service (ADDS)

Output produced by METARs form (1508 UTC 03 September 2015)
found at http://aviationweather.gov/adds/metars/
 
KAEX 031453Z AUTO 13004KT 10SM FEW018 28/22 A3000 RMK AO2 SLP160 T02780222 51006